createdAt,value
2018-07-13T00:00:41.488Z,18.20
2018-07-13T00:03:11.277Z,18.30
2018-07-13T00:05:41.076Z,18.20
2018-07-13T00:08:10.747Z,18.20
2018-07-13T00:10:40.400Z,18.30
2018-07-13T00:13:10.023Z,18.20
2018-07-13T00:15:49.359Z,18.30
2018-07-13T00:18:19.152Z,18.30
2018-07-13T00:20:48.856Z,18.20
2018-07-13T00:23:18.874Z,18.20
2018-07-13T00:25:48.712Z,18.30
2018-07-13T00:28:18.393Z,18.30
2018-07-13T00:30:48.077Z,18.30
2018-07-13T00:33:17.840Z,18.20
2018-07-13T00:35:47.526Z,18.30
2018-07-13T00:38:17.200Z,18.30
2018-07-13T00:40:46.759Z,18.20
2018-07-13T00:43:16.541Z,18.30
2018-07-13T00:45:46.287Z,18.30
2018-07-13T00:48:15.960Z,18.30
2018-07-13T00:50:45.693Z,18.30
2018-07-13T00:53:15.400Z,18.20
2018-07-13T00:55:45.069Z,18.30
2018-07-13T00:58:14.829Z,18.30
2018-07-13T01:00:44.597Z,18.30
2018-07-13T01:03:14.244Z,18.30
2018-07-13T01:05:43.965Z,18.30
2018-07-13T01:08:13.799Z,18.30
2018-07-13T01:10:43.372Z,18.30
2018-07-13T01:13:13.045Z,18.30
2018-07-13T01:15:42.672Z,18.30
2018-07-13T01:18:12.476Z,18.30
2018-07-13T01:20:45.654Z,18.30
2018-07-13T01:25:54.757Z,18.30
2018-07-13T01:28:27.637Z,18.30
2018-07-13T01:30:57.446Z,18.30
2018-07-13T01:33:27.237Z,18.30
2018-07-13T01:35:56.985Z,18.30
2018-07-13T01:38:26.814Z,18.30
2018-07-13T01:43:25.537Z,18.30
2018-07-13T01:45:55.169Z,18.30
2018-07-13T01:48:24.789Z,18.20
2018-07-13T01:50:54.596Z,18.30
2018-07-13T01:53:24.410Z,18.20
2018-07-13T01:55:54.027Z,18.20
2018-07-13T01:58:23.633Z,18.20
2018-07-13T02:00:54.380Z,18.20
2018-07-13T02:03:24.025Z,18.20
2018-07-13T02:05:53.800Z,18.20
2018-07-13T02:08:23.575Z,18.10
2018-07-13T02:10:53.261Z,18.10
2018-07-13T02:13:22.917Z,18.10
2018-07-13T02:15:52.682Z,18.10
2018-07-13T02:18:22.431Z,18.10
2018-07-13T02:20:52.327Z,18.00
2018-07-13T02:23:21.953Z,18.00
2018-07-13T02:25:51.643Z,18.00
2018-07-13T02:28:21.340Z,18.00
2018-07-13T02:30:51.080Z,18.00
2018-07-13T02:33:20.854Z,18.00
2018-07-13T02:35:50.603Z,18.00
2018-07-13T02:38:20.369Z,18.00
2018-07-13T02:40:50.151Z,18.00
2018-07-13T02:43:19.795Z,18.10
2018-07-13T02:45:49.444Z,18.10
2018-07-13T02:48:19.169Z,18.10
2018-07-13T02:50:49.024Z,18.10
2018-07-13T02:53:18.653Z,18.10
2018-07-13T02:55:48.295Z,18.10
2018-07-13T02:58:18.097Z,18.10
2018-07-13T03:00:47.818Z,18.10
2018-07-13T03:03:17.577Z,18.10
2018-07-13T03:08:16.657Z,18.10
2018-07-13T03:10:46.397Z,18.10
2018-07-13T03:13:16.368Z,18.10
2018-07-13T03:15:46.067Z,18.10
2018-07-13T03:18:15.766Z,18.10
2018-07-13T03:20:45.549Z,18.10
2018-07-13T03:23:15.187Z,18.10
2018-07-13T03:25:44.781Z,18.10
2018-07-13T03:28:14.416Z,18.10
2018-07-13T03:30:44.296Z,18.10
2018-07-13T03:33:14.037Z,18.10
2018-07-13T03:35:43.727Z,18.10
2018-07-13T03:38:13.505Z,18.10
2018-07-13T03:40:43.161Z,18.10
2018-07-13T03:43:12.965Z,18.10
2018-07-13T03:45:42.585Z,18.10
2018-07-13T03:48:12.200Z,18.10
2018-07-13T03:50:42.078Z,18.10
2018-07-13T03:53:11.822Z,18.20
2018-07-13T03:55:41.638Z,18.20
2018-07-13T03:58:13.052Z,18.20
2018-07-13T04:00:43.044Z,18.20
2018-07-13T04:03:12.788Z,18.20
2018-07-13T04:05:42.471Z,18.30
2018-07-13T04:08:12.346Z,18.30
2018-07-13T04:10:42.198Z,18.40
2018-07-13T04:13:11.949Z,18.40
2018-07-13T04:15:41.759Z,18.40
2018-07-13T04:18:19.808Z,18.40
2018-07-13T04:20:50.068Z,18.40
2018-07-13T04:23:20.916Z,18.40
2018-07-13T04:25:51.032Z,18.40
2018-07-13T04:28:21.572Z,18.50
2018-07-13T04:30:51.473Z,18.50
2018-07-13T04:33:21.357Z,18.50
2018-07-13T04:35:51.128Z,18.60
2018-07-13T04:38:20.985Z,18.70
2018-07-13T04:40:50.818Z,18.70
2018-07-13T04:43:20.558Z,18.70
2018-07-13T04:45:50.476Z,18.80
2018-07-13T04:48:20.376Z,18.80
2018-07-13T04:50:50.282Z,18.90
2018-07-13T04:53:20.089Z,18.90
2018-07-13T04:55:49.911Z,18.90
2018-07-13T04:58:19.793Z,19.00
2018-07-13T05:00:49.660Z,19.00
2018-07-13T05:03:19.677Z,19.10
2018-07-13T05:05:49.691Z,19.10
2018-07-13T05:08:19.411Z,19.20
2018-07-13T05:10:49.228Z,19.20
2018-07-13T05:13:19.077Z,19.30
2018-07-13T05:15:48.838Z,19.40
2018-07-13T05:18:18.803Z,19.40
2018-07-13T05:23:18.022Z,19.50
2018-07-13T05:25:47.869Z,19.60
2018-07-13T05:28:17.778Z,19.60
2018-07-13T05:30:47.652Z,19.70
2018-07-13T05:33:17.572Z,19.70
2018-07-13T05:35:47.573Z,19.80
2018-07-13T05:38:17.518Z,19.90
2018-07-13T05:40:47.460Z,19.90
2018-07-13T05:43:17.381Z,20.00
2018-07-13T05:45:47.281Z,20.00
2018-07-13T05:48:17.391Z,20.10
2018-07-13T05:50:47.153Z,20.20
2018-07-13T05:53:17.036Z,20.20
2018-07-13T05:55:46.991Z,20.30
2018-07-13T05:58:16.876Z,20.30
2018-07-13T06:00:46.659Z,20.40
2018-07-13T06:03:16.512Z,20.50
2018-07-13T06:05:46.504Z,20.50
2018-07-13T06:08:16.424Z,20.60
2018-07-13T06:10:46.254Z,20.70
2018-07-13T06:13:16.145Z,20.80
2018-07-13T06:15:48.231Z,20.90
2018-07-13T06:18:18.530Z,21.00
2018-07-13T06:20:50.024Z,21.10
2018-07-13T06:23:20.319Z,21.20
2018-07-13T06:25:50.449Z,21.20
2018-07-13T06:28:20.232Z,21.30
2018-07-13T06:33:19.013Z,21.50
2018-07-13T06:35:48.760Z,21.70
2018-07-13T06:38:18.732Z,21.80
2018-07-13T06:40:49.797Z,21.90
2018-07-13T06:43:19.686Z,22.00
2018-07-13T06:45:49.347Z,22.20
2018-07-13T06:48:19.169Z,22.30
2018-07-13T06:50:49.075Z,22.40
2018-07-13T06:53:18.887Z,22.50
2018-07-13T06:55:48.698Z,22.80
2018-07-13T06:58:29.156Z,24.20
2018-07-13T07:01:03.992Z,26.60
2018-07-13T07:04:39.851Z,28.80
2018-07-13T07:07:13.867Z,31.10
2018-07-13T07:09:49.261Z,33.50
2018-07-13T07:13:32.568Z,34.90
2018-07-13T07:18:31.697Z,36.70
2018-07-13T07:21:01.500Z,37.30
2018-07-13T07:23:31.748Z,37.50
2018-07-13T07:26:01.987Z,37.30
2018-07-13T07:28:31.730Z,37.50
2018-07-13T07:31:02.237Z,38.10
2018-07-13T07:33:32.110Z,38.20
2018-07-13T07:36:01.706Z,38.50
2018-07-13T07:38:31.467Z,38.50
2018-07-13T07:41:01.416Z,38.10
2018-07-13T07:43:31.262Z,38.40
2018-07-13T07:46:00.793Z,38.40
2018-07-13T07:48:30.389Z,38.70
2018-07-13T07:51:00.143Z,38.80
2018-07-13T07:53:29.917Z,39.40
2018-07-13T07:55:59.701Z,39.50
2018-07-13T07:58:29.482Z,39.90
2018-07-13T08:00:59.127Z,39.70
2018-07-13T08:03:28.881Z,39.70
2018-07-13T08:05:58.581Z,39.60
2018-07-13T08:08:28.506Z,39.70
2018-07-13T08:10:58.430Z,40.00
2018-07-13T08:13:28.366Z,40.20
2018-07-13T08:15:58.156Z,40.20
2018-07-13T08:18:27.948Z,39.90
2018-07-13T08:20:57.853Z,39.30
2018-07-13T08:23:27.691Z,39.50
2018-07-13T08:25:57.503Z,39.80
2018-07-13T08:28:28.041Z,40.10
2018-07-13T08:31:02.717Z,40.20
2018-07-13T08:33:32.576Z,40.70
2018-07-13T08:36:02.435Z,40.40
2018-07-13T08:38:32.197Z,40.50
2018-07-13T08:41:02.054Z,40.70
2018-07-13T08:43:31.820Z,40.60
2018-07-13T08:46:01.678Z,40.80
2018-07-13T08:51:00.761Z,40.90
2018-07-13T08:53:30.585Z,40.90
2018-07-13T08:56:00.268Z,41.10
2018-07-13T08:58:30.128Z,41.40
2018-07-13T09:00:59.964Z,41.40
2018-07-13T09:03:29.689Z,41.50
2018-07-13T09:05:59.518Z,41.60
2018-07-13T09:08:29.489Z,41.60
2018-07-13T09:10:59.161Z,41.10
2018-07-13T09:13:29.097Z,41.10
2018-07-13T09:15:58.856Z,41.30
2018-07-13T09:18:28.846Z,41.10
2018-07-13T09:20:58.798Z,40.70
2018-07-13T09:23:28.708Z,40.70
2018-07-13T09:25:58.518Z,40.80
2018-07-13T09:28:28.429Z,41.00
2018-07-13T09:30:58.251Z,41.30
2018-07-13T09:33:28.173Z,41.10
2018-07-13T09:35:57.981Z,41.30
2018-07-13T09:38:27.806Z,41.50
2018-07-13T09:40:57.614Z,41.30
2018-07-13T09:43:27.567Z,41.40
2018-07-13T09:45:57.437Z,41.40
2018-07-13T09:48:27.401Z,41.30
2018-07-13T09:50:57.210Z,41.00
2018-07-13T09:53:26.928Z,40.70
2018-07-13T09:55:56.853Z,40.60
2018-07-13T09:58:35.915Z,40.50
2018-07-13T10:01:10.829Z,40.60
2018-07-13T10:03:40.654Z,40.50
2018-07-13T10:06:10.628Z,40.80
2018-07-13T10:08:40.474Z,41.10
2018-07-13T10:11:10.480Z,41.00
2018-07-13T10:13:40.360Z,40.70
2018-07-13T10:16:10.285Z,40.40
2018-07-13T10:18:40.148Z,39.90
2018-07-13T10:21:10.570Z,40.00
2018-07-13T10:23:41.387Z,40.00
2018-07-13T10:26:19.037Z,39.70
2018-07-13T10:28:49.042Z,39.30
2018-07-13T10:31:19.033Z,39.00
2018-07-13T10:33:49.003Z,38.80
2018-07-13T10:36:19.569Z,38.20
2018-07-13T10:38:49.417Z,37.20
2018-07-13T10:41:19.262Z,36.10
2018-07-13T10:43:49.017Z,35.00
2018-07-13T10:46:18.831Z,34.30
2018-07-13T10:48:48.745Z,33.70
2018-07-13T10:51:18.460Z,33.20
2018-07-13T10:53:48.273Z,33.00
2018-07-13T10:56:17.982Z,32.60
2018-07-13T10:58:47.737Z,32.30
2018-07-13T11:01:17.408Z,32.20
2018-07-13T11:03:47.093Z,31.80
2018-07-13T11:06:16.947Z,31.60
2018-07-13T11:08:46.529Z,31.50
2018-07-13T11:11:16.303Z,31.50
2018-07-13T11:13:46.175Z,31.40
2018-07-13T11:16:15.737Z,31.20
2018-07-13T11:18:45.435Z,31.20
2018-07-13T11:21:15.157Z,31.10
2018-07-13T11:23:44.839Z,30.90
2018-07-13T11:28:43.695Z,30.90
2018-07-13T11:31:13.661Z,30.90
2018-07-13T11:36:12.405Z,30.90
2018-07-13T11:38:42.402Z,30.70
2018-07-13T11:41:12.241Z,30.60
2018-07-13T11:43:42.004Z,30.50
2018-07-13T11:56:08.058Z,30.20
2018-07-13T11:58:37.819Z,30.20
2018-07-13T12:01:07.752Z,30.20
2018-07-13T12:03:37.455Z,30.20
2018-07-13T12:06:07.300Z,30.20
2018-07-13T12:08:37.115Z,30.10
2018-07-13T12:11:06.872Z,30.00
2018-07-13T12:13:36.616Z,30.00
2018-07-13T12:16:06.414Z,29.90
2018-07-13T12:18:36.141Z,29.80
2018-07-13T12:21:06.097Z,29.60
2018-07-13T12:23:35.868Z,29.50
2018-07-13T12:26:05.658Z,29.20
2018-07-13T12:28:35.521Z,29.20
2018-07-13T12:31:05.417Z,29.20
2018-07-13T12:33:35.228Z,29.10
2018-07-13T12:36:05.148Z,29.00
2018-07-13T12:38:35.003Z,29.00
2018-07-13T12:41:04.870Z,29.00
2018-07-13T12:43:34.677Z,28.90
2018-07-13T12:46:04.501Z,28.80
2018-07-13T12:48:34.303Z,28.80
2018-07-13T12:51:04.330Z,28.80
2018-07-13T12:53:34.185Z,28.80
2018-07-13T12:56:03.949Z,28.80
2018-07-13T12:58:33.809Z,28.80
2018-07-13T13:01:03.554Z,28.70
2018-07-13T13:03:33.455Z,28.70
2018-07-13T13:06:03.090Z,28.80
2018-07-13T13:08:33.181Z,28.80
2018-07-13T13:11:02.814Z,28.70
2018-07-13T13:13:32.784Z,28.70
2018-07-13T13:16:02.571Z,28.60
2018-07-13T13:18:32.409Z,28.60
2018-07-13T13:21:02.160Z,28.60
2018-07-13T13:23:32.031Z,28.40
2018-07-13T13:26:01.560Z,28.40
2018-07-13T13:28:31.265Z,28.30
2018-07-13T13:31:01.011Z,28.30
2018-07-13T13:33:30.751Z,28.40
2018-07-13T13:38:29.621Z,28.30
2018-07-13T13:40:59.216Z,28.20
2018-07-13T13:43:28.992Z,28.30
2018-07-13T13:45:58.673Z,28.20
2018-07-13T13:48:28.345Z,28.20
2018-07-13T13:50:58.070Z,28.20
2018-07-13T13:53:27.757Z,28.20
2018-07-13T13:55:57.652Z,28.30
2018-07-13T14:00:56.507Z,28.30
2018-07-13T14:03:26.361Z,28.30
2018-07-13T14:08:25.202Z,28.20
2018-07-13T14:10:55.107Z,28.20
2018-07-13T14:13:24.849Z,28.10
2018-07-13T14:15:54.232Z,28.10
2018-07-13T14:18:23.621Z,28.10
2018-07-13T14:20:53.260Z,28.00
2018-07-13T14:23:22.948Z,27.90
2018-07-13T14:25:52.477Z,27.90
2018-07-13T14:28:21.965Z,27.80
2018-07-13T14:30:51.416Z,27.80
2018-07-13T14:33:20.798Z,27.80
2018-07-13T14:35:50.823Z,27.80
2018-07-13T14:38:20.989Z,27.80
2018-07-13T14:40:51.156Z,27.80
2018-07-13T14:43:20.548Z,27.80
2018-07-13T14:45:49.946Z,27.80
2018-07-13T14:48:19.648Z,27.70
2018-07-13T14:50:49.880Z,27.60
2018-07-13T14:53:19.917Z,27.60
2018-07-13T14:55:49.333Z,27.40
2018-07-13T15:00:48.724Z,27.30
2018-07-13T15:03:18.533Z,27.30
2018-07-13T15:05:48.166Z,27.30
2018-07-13T15:08:18.248Z,27.30
2018-07-13T15:10:48.345Z,27.30
2018-07-13T15:13:18.581Z,27.30
2018-07-13T15:15:48.001Z,27.30
2018-07-13T15:18:17.386Z,27.30
2018-07-13T15:20:46.764Z,27.30
2018-07-13T15:23:16.688Z,27.30
2018-07-13T15:25:46.392Z,27.40
2018-07-13T15:28:16.486Z,27.30
2018-07-13T15:30:45.893Z,27.30
2018-07-13T15:33:15.293Z,27.30
2018-07-13T15:35:44.692Z,27.20
2018-07-13T15:38:14.106Z,27.10
2018-07-13T15:40:43.560Z,27.10
2018-07-13T15:43:13.009Z,27.00
2018-07-13T15:45:42.422Z,27.10
2018-07-13T15:48:11.817Z,27.10
2018-07-13T15:50:41.251Z,27.00
2018-07-13T15:53:10.631Z,26.90
2018-07-13T15:55:45.039Z,26.70
2018-07-13T15:58:14.756Z,26.70
2018-07-13T16:00:44.620Z,26.60
2018-07-13T16:03:15.019Z,26.50
2018-07-13T16:05:44.471Z,26.40
2018-07-13T16:08:14.316Z,26.30
2018-07-13T16:10:43.906Z,26.20
2018-07-13T16:13:13.798Z,26.20
2018-07-13T16:15:43.523Z,26.10
2018-07-13T16:18:13.203Z,26.10
2018-07-13T16:20:43.024Z,26.10
2018-07-13T16:23:12.728Z,26.10
2018-07-13T16:25:42.492Z,26.10
2018-07-13T16:28:12.923Z,26.00
2018-07-13T16:30:43.268Z,26.00
2018-07-13T16:33:13.011Z,26.00
2018-07-13T16:35:42.669Z,26.00
2018-07-13T16:38:12.460Z,26.00
2018-07-13T16:40:41.896Z,26.00
2018-07-13T16:43:11.698Z,25.90
2018-07-13T16:45:41.356Z,25.80
2018-07-13T16:48:10.816Z,25.70
2018-07-13T16:50:40.383Z,25.70
2018-07-13T16:53:09.677Z,25.60
2018-07-13T16:55:39.092Z,25.50
2018-07-13T16:58:08.538Z,25.50
2018-07-13T17:00:37.935Z,25.40
2018-07-13T17:03:07.390Z,25.40
2018-07-13T17:05:36.780Z,25.40
2018-07-13T17:08:06.208Z,25.30
2018-07-13T17:10:35.596Z,25.30
2018-07-13T17:13:05.068Z,25.20
2018-07-13T17:15:34.456Z,25.10
2018-07-13T17:18:03.865Z,25.10
2018-07-13T17:20:33.368Z,25.00
2018-07-13T17:23:02.990Z,25.00
2018-07-13T17:25:32.416Z,24.90
2018-07-13T17:28:01.821Z,24.80
2018-07-13T17:30:31.233Z,24.80
2018-07-13T17:33:00.664Z,24.60
2018-07-13T17:35:30.062Z,24.60
2018-07-13T17:37:59.497Z,24.50
2018-07-13T17:40:29.233Z,24.40
2018-07-13T17:42:58.732Z,24.40
2018-07-13T17:45:28.149Z,24.40
2018-07-13T17:47:57.549Z,24.40
2018-07-13T17:50:26.990Z,24.40
2018-07-13T17:52:56.519Z,24.40
2018-07-13T17:55:25.947Z,24.30
2018-07-13T17:57:55.337Z,24.30
2018-07-13T18:00:24.829Z,24.30
2018-07-13T18:02:54.245Z,24.20
2018-07-13T18:05:23.622Z,24.30
2018-07-13T18:07:53.024Z,24.20
2018-07-13T18:10:22.448Z,24.20
2018-07-13T18:12:51.919Z,24.20
2018-07-13T18:15:21.259Z,24.20
2018-07-13T18:17:50.636Z,24.20
2018-07-13T18:20:20.060Z,24.10
2018-07-13T18:22:49.491Z,24.10
2018-07-13T18:25:18.927Z,24.00
2018-07-13T18:27:48.317Z,24.00
2018-07-13T18:30:17.726Z,24.00
2018-07-13T18:32:47.127Z,23.90
2018-07-13T18:35:16.550Z,23.90
2018-07-13T18:37:45.947Z,23.90
2018-07-13T18:40:15.760Z,23.80
2018-07-13T18:42:45.412Z,23.90
2018-07-13T18:45:15.240Z,23.90
2018-07-13T18:47:44.935Z,23.80
2018-07-13T18:50:14.735Z,23.80
2018-07-13T18:52:44.577Z,23.70
2018-07-13T18:55:14.357Z,23.70
2018-07-13T18:57:44.056Z,23.70
2018-07-13T19:00:13.718Z,23.60
2018-07-13T19:02:43.718Z,23.60
2018-07-13T19:05:13.813Z,23.60
2018-07-13T19:07:43.497Z,23.50
2018-07-13T19:10:13.253Z,23.50
2018-07-13T19:12:43.047Z,23.50
2018-07-13T19:15:12.771Z,23.50
2018-07-13T19:17:42.596Z,23.40
2018-07-13T19:20:12.448Z,23.40
2018-07-13T19:22:42.425Z,23.30
2018-07-13T19:25:11.973Z,23.30
2018-07-13T19:27:41.534Z,23.20
2018-07-13T19:30:11.317Z,23.20
2018-07-13T19:32:41.116Z,23.10
2018-07-13T19:35:10.866Z,23.10
2018-07-13T19:37:40.572Z,23.00
2018-07-13T19:40:10.362Z,22.90
2018-07-13T19:42:40.145Z,22.90
2018-07-13T19:45:10.008Z,22.90
2018-07-13T19:47:39.873Z,22.90
2018-07-13T19:50:09.521Z,22.80
2018-07-13T19:52:39.322Z,22.80
2018-07-13T19:55:09.044Z,22.80
2018-07-13T19:57:38.664Z,22.70
2018-07-13T20:00:08.537Z,22.70
2018-07-13T20:02:38.281Z,22.60
2018-07-13T20:05:08.164Z,22.60
2018-07-13T20:07:37.913Z,22.60
2018-07-13T20:10:07.657Z,22.60
2018-07-13T20:12:37.430Z,22.60
2018-07-13T20:15:07.159Z,22.50
2018-07-13T20:17:36.948Z,22.50
2018-07-13T20:20:07.657Z,22.50
2018-07-13T20:22:37.800Z,22.40
2018-07-13T20:25:08.305Z,22.40
2018-07-13T20:27:38.220Z,22.40
2018-07-13T20:30:08.648Z,22.40
2018-07-13T20:32:38.392Z,22.30
2018-07-13T20:35:08.112Z,22.30
2018-07-13T20:37:37.890Z,22.30
2018-07-13T20:40:07.617Z,22.20
2018-07-13T20:42:37.438Z,22.20
2018-07-13T20:45:07.301Z,22.20
2018-07-13T20:47:36.988Z,22.10
2018-07-13T20:50:07.020Z,22.10
2018-07-13T20:52:36.933Z,22.00
2018-07-13T20:55:06.700Z,22.00
2018-07-13T20:57:36.497Z,22.00
2018-07-13T21:00:06.755Z,22.00
2018-07-13T21:02:36.617Z,22.00
2018-07-13T21:05:06.368Z,21.90
2018-07-13T21:07:36.148Z,21.90
2018-07-13T21:10:05.988Z,21.90
2018-07-13T21:12:38.341Z,21.90
2018-07-13T21:15:08.439Z,21.90
2018-07-13T21:17:39.007Z,21.80
2018-07-13T21:20:09.855Z,21.80
2018-07-13T21:22:39.849Z,21.80
2018-07-13T21:25:09.779Z,21.80
2018-07-13T21:27:39.979Z,21.80
2018-07-13T21:30:10.276Z,21.80
2018-07-13T21:32:40.714Z,21.70
2018-07-13T21:35:11.274Z,21.70
2018-07-13T21:37:41.614Z,21.70
2018-07-13T21:40:12.139Z,21.60
2018-07-13T21:42:41.793Z,21.60
2018-07-13T21:45:12.628Z,21.60
2018-07-13T21:47:42.543Z,21.50
2018-07-13T21:50:13.010Z,21.50
2018-07-13T21:52:42.570Z,21.50
2018-07-13T21:55:12.625Z,21.40
2018-07-13T21:57:42.633Z,21.40
2018-07-13T22:00:12.209Z,21.40
2018-07-13T22:02:42.366Z,21.40
2018-07-13T22:05:11.889Z,21.40
2018-07-13T22:07:41.834Z,21.30
2018-07-13T22:10:11.383Z,21.30
2018-07-13T22:12:40.816Z,21.30
2018-07-13T22:15:10.509Z,21.20
2018-07-13T22:17:40.624Z,21.30
2018-07-13T22:20:10.034Z,21.20
2018-07-13T22:22:39.983Z,21.20
2018-07-13T22:25:09.641Z,21.20
2018-07-13T22:27:39.016Z,21.20
2018-07-13T22:30:08.584Z,21.10
2018-07-13T22:32:38.736Z,21.10
2018-07-13T22:35:09.350Z,21.10
2018-07-13T22:37:39.024Z,21.10
2018-07-13T22:40:08.849Z,21.00
2018-07-13T22:42:38.663Z,21.00
2018-07-13T22:45:08.356Z,21.10
2018-07-13T22:47:38.136Z,21.00
2018-07-13T22:50:08.039Z,21.10
2018-07-13T22:52:38.049Z,21.00
2018-07-13T22:55:07.954Z,21.10
2018-07-13T22:57:37.639Z,21.00
2018-07-13T23:00:07.761Z,21.00
2018-07-13T23:02:37.565Z,21.00
2018-07-13T23:05:07.640Z,20.90
2018-07-13T23:07:37.408Z,21.00
2018-07-13T23:10:07.260Z,20.90
2018-07-13T23:12:37.019Z,20.90
2018-07-13T23:15:06.836Z,20.90
2018-07-13T23:17:36.549Z,20.90
2018-07-13T23:20:06.280Z,20.90
2018-07-13T23:22:36.015Z,20.90
2018-07-13T23:25:05.882Z,20.90
2018-07-13T23:27:35.744Z,20.90
2018-07-13T23:30:05.522Z,20.90
2018-07-13T23:32:35.365Z,20.80
2018-07-13T23:35:05.099Z,20.80
2018-07-13T23:37:34.725Z,20.80
2018-07-13T23:40:04.544Z,20.80
2018-07-13T23:42:34.305Z,20.80
2018-07-13T23:47:33.236Z,20.80
2018-07-13T23:50:03.024Z,20.80
2018-07-13T23:52:32.782Z,20.80
2018-07-13T23:55:02.548Z,20.70
2018-07-13T23:57:32.404Z,20.80
